Weather at Piarco International Airport

Public forecast

Using degrees Celsius for public forecast. Weather courtesy of forecast.io.

Current aviation weather report (METAR) for Piarco International Airport

Retrieved 2020/09/22 04:00 UTC (51 minutes ago):

TTPP 220400Z 00000KT 9999 FEW015 26/25 Q1012 NOSIG

Aviation forecast (TAF) for Piarco International Airport

Retrieved 2020-09-22 00:33 UTC (4 hours ago):

TAF TTPP 212200Z 2200/2224 00000KT 9999 FEW018 BECMG 2212/2214 11008KT SCT022 PROB40 TEMPO 2218/2222 FEW012CB SCT018